Time;durP1;ratioP1;P1;durP2;ratioP2;P2;SDS_P1;SDS_P2;PMS_P1;PMS_P2;Temp;Humidity;BMP_temperature;BMP_pressure;BME280_temperature;BME280_humidity;BME280_pressure;Samples;Min_cycle;Max_cycle;Signal;HPM_P1;HPM_P2
2021/10/04 00:01:14;;;;;;;2.50;0.30;;;14.90;99.90;;;;;;5053787;28;20032;-78
2021/10/04 00:03:41;;;;;;;1.27;0.25;;;14.80;99.90;;;;;;5053920;28;20108;-78
2021/10/04 00:06:08;;;;;;;1.65;0.10;;;14.90;99.90;;;;;;5053635;28;20036;-78
2021/10/04 00:08:34;;;;;;;0.30;0.10;;;14.80;99.90;;;;;;5053635;28;20037;-79
2021/10/04 00:11:01;;;;;;;0.90;0.40;;;14.70;99.90;;;;;;5053393;28;20040;-80
2021/10/04 00:13:27;;;;;;;0.35;0.22;;;14.60;99.90;;;;;;5069126;28;20132;-80
2021/10/04 00:15:53;;;;;;;0.73;0.35;;;14.50;99.90;;;;;;5053476;28;20532;-81
2021/10/04 00:18:19;;;;;;;0.38;0.38;;;14.50;99.90;;;;;;5053073;28;20087;-81
2021/10/04 00:20:45;;;;;;;0.95;0.40;;;14.50;99.90;;;;;;5053408;28;20425;-81
2021/10/04 00:23:11;;;;;;;1.45;0.60;;;14.50;99.90;;;;;;5053103;28;20047;-81
2021/10/04 00:25:37;;;;;;;1.00;0.60;;;14.50;99.90;;;;;;5052114;28;20024;-81
2021/10/04 00:28:03;;;;;;;0.30;0.30;;;14.50;99.90;;;;;;5053342;28;20485;-80
2021/10/04 00:30:29;;;;;;;1.08;0.60;;;14.50;99.90;;;;;;5053362;28;20547;-80
2021/10/04 00:32:55;;;;;;;1.05;0.52;;;14.50;99.90;;;;;;5053257;28;20037;-79
2021/10/04 00:35:24;;;;;;;0.55;0.50;;;14.40;99.90;;;;;;5052979;28;20119;-79
2021/10/04 00:37:51;;;;;;;1.25;0.70;;;14.40;99.90;;;;;;5053187;28;20017;-77
2021/10/04 00:40:25;;;;;;;0.95;0.50;;;14.40;99.90;;;;;;5052798;28;20108;-77
2021/10/04 00:42:51;;;;;;;0.52;0.45;;;14.40;99.90;;;;;;5053130;28;20078;-78
2021/10/04 00:45:19;;;;;;;1.75;0.70;;;14.30;99.90;;;;;;5052661;28;20516;-76
2021/10/04 00:47:45;;;;;;;2.58;1.20;;;14.30;99.90;;;;;;5068181;28;20119;-77
2021/10/04 00:50:13;;;;;;;0.80;0.50;;;14.20;99.90;;;;;;5052608;28;20053;-77
2021/10/04 00:52:39;;;;;;;1.17;0.70;;;14.30;99.90;;;;;;5052749;28;20100;-77
2021/10/04 00:55:07;;;;;;;1.42;0.80;;;14.30;99.90;;;;;;5052500;28;20515;-77
2021/10/04 00:57:33;;;;;;;2.25;0.88;;;14.30;99.90;;;;;;5052813;28;20110;-77
2021/10/04 01:00:00;;;;;;;1.00;0.70;;;14.30;99.90;;;;;;5052485;28;20044;-77
2021/10/04 01:02:26;;;;;;;1.20;0.68;;;14.40;99.90;;;;;;5067660;28;20064;-77
2021/10/04 01:04:51;;;;;;;0.73;0.43;;;14.30;99.90;;;;;;5052707;28;20061;-77
2021/10/04 01:07:17;;;;;;;0.85;0.60;;;14.20;99.90;;;;;;5052561;28;20057;-76
2021/10/04 01:09:43;;;;;;;1.20;0.50;;;14.30;99.90;;;;;;5052552;28;20037;-76
2021/10/04 01:12:09;;;;;;;2.13;0.60;;;14.20;99.90;;;;;;5052359;28;20025;-76
2021/10/04 01:14:35;;;;;;;0.90;0.55;;;14.10;99.90;;;;;;5052145;28;20028;-76
2021/10/04 01:17:01;;;;;;;1.50;0.60;;;14.10;99.90;;;;;;5052161;28;20041;-76
2021/10/04 01:19:27;;;;;;;1.23;0.57;;;14.00;99.90;;;;;;5051983;28;20045;-76
2021/10/04 01:21:53;;;;;;;2.20;0.50;;;14.00;99.90;;;;;;5051731;28;20024;-76
2021/10/04 01:24:19;;;;;;;0.47;0.32;;;13.90;99.90;;;;;;5052327;28;20040;-77
2021/10/04 01:26:45;;;;;;;1.80;0.57;;;14.00;99.90;;;;;;5052405;28;20071;-76
2021/10/04 01:29:12;;;;;;;1.63;0.65;;;14.00;99.90;;;;;;5067810;28;20037;-76
2021/10/04 01:31:38;;;;;;;1.33;0.60;;;14.00;99.90;;;;;;5067668;28;20036;-77
2021/10/04 01:34:06;;;;;;;1.13;0.50;;;13.90;99.90;;;;;;5052383;28;20191;-77
2021/10/04 01:36:33;;;;;;;1.35;0.60;;;13.90;99.90;;;;;;5052098;28;20043;-77
2021/10/04 01:38:59;;;;;;;0.65;0.40;;;13.90;99.90;;;;;;5051919;28;20033;-76
2021/10/04 01:41:26;;;;;;;1.38;0.40;;;13.80;99.90;;;;;;5052239;28;20059;-77
2021/10/04 01:43:53;;;;;;;0.73;0.45;;;13.80;99.90;;;;;;5052108;28;20393;-77
2021/10/04 01:46:20;;;;;;;0.77;0.40;;;13.80;99.90;;;;;;5052163;28;20026;-77
2021/10/04 01:48:46;;;;;;;0.80;0.50;;;13.60;99.90;;;;;;5052042;28;20033;-77
2021/10/04 01:51:12;;;;;;;2.78;1.23;;;13.70;99.90;;;;;;5052309;28;20036;-77
2021/10/04 01:53:38;;;;;;;2.03;0.70;;;13.60;99.90;;;;;;5067782;28;20111;-77
2021/10/04 01:56:05;;;;;;;1.15;0.50;;;13.60;99.90;;;;;;5052140;28;20121;-78
2021/10/04 01:58:31;;;;;;;0.82;0.57;;;13.60;99.90;;;;;;5052054;28;20112;-77
2021/10/04 02:00:59;;;;;;;2.58;0.80;;;13.60;99.90;;;;;;5052410;28;20044;-77
2021/10/04 02:03:25;;;;;;;3.95;0.90;;;13.60;99.90;;;;;;5051716;28;20065;-77
2021/10/04 02:05:51;;;;;;;4.28;0.70;;;13.60;99.90;;;;;;5052169;28;20029;-78
2021/10/04 02:08:17;;;;;;;0.88;0.50;;;13.50;99.90;;;;;;5051649;28;20029;-79
2021/10/04 02:10:44;;;;;;;2.67;0.50;;;13.40;99.90;;;;;;5052118;28;20086;-78
2021/10/04 02:13:11;;;;;;;1.10;0.50;;;13.40;99.90;;;;;;5051927;28;20024;-79
2021/10/04 02:15:39;;;;;;;2.08;0.40;;;13.40;99.90;;;;;;5051787;28;20144;-79
2021/10/04 02:18:07;;;;;;;0.80;0.52;;;13.40;99.90;;;;;;5066863;28;20433;-79
2021/10/04 02:20:37;;;;;;;1.77;0.63;;;13.40;99.90;;;;;;5051856;28;20040;-79
2021/10/04 02:23:06;;;;;;;1.10;0.40;;;13.40;99.90;;;;;;5051733;28;20033;-78
2021/10/04 02:25:40;;;;;;;1.85;0.65;;;13.40;99.90;;;;;;5051890;28;20454;-78
2021/10/04 02:28:08;;;;;;;1.75;0.73;;;13.40;99.90;;;;;;5051987;28;20113;-79
2021/10/04 02:30:39;;;;;;;2.38;0.57;;;13.20;99.90;;;;;;5051915;28;20056;-78
2021/10/04 02:33:06;;;;;;;2.55;0.40;;;13.20;99.90;;;;;;5053651;28;20122;-79
2021/10/04 02:35:32;;;;;;;0.73;0.35;;;13.30;99.90;;;;;;5055113;28;20397;-79
2021/10/04 02:37:58;;;;;;;1.30;0.60;;;13.30;99.90;;;;;;5055563;28;20029;-80
2021/10/04 02:40:25;;;;;;;0.55;0.32;;;13.20;99.90;;;;;;5055322;28;20033;-80
2021/10/04 02:42:52;;;;;;;2.17;0.90;;;13.20;99.90;;;;;;5055206;28;20024;-79
2021/10/04 02:45:20;;;;;;;1.65;0.38;;;13.30;99.90;;;;;;5055186;28;20037;-79
2021/10/04 02:47:48;;;;;;;0.57;0.40;;;13.20;99.90;;;;;;5055141;28;20029;-79
2021/10/04 02:50:18;;;;;;;3.15;0.70;;;13.20;99.90;;;;;;5054930;28;20554;-80
2021/10/04 02:52:44;;;;;;;1.83;0.70;;;13.20;99.90;;;;;;5055299;28;20226;-79
2021/10/04 02:55:10;;;;;;;4.07;0.50;;;13.20;99.90;;;;;;5070472;28;20123;-79
2021/10/04 02:57:36;;;;;;;1.05;0.60;;;13.20;99.90;;;;;;5070414;28;20378;-79
2021/10/04 03:00:07;;;;;;;1.52;0.55;;;13.20;99.90;;;;;;5070508;28;20044;-79
2021/10/04 03:02:32;;;;;;;1.27;0.55;;;13.20;99.90;;;;;;5054716;28;20516;-79
2021/10/04 03:04:58;;;;;;;1.13;0.60;;;13.20;99.90;;;;;;5054653;28;20073;-79
2021/10/04 03:07:25;;;;;;;1.65;0.60;;;13.20;99.90;;;;;;5055111;28;20086;-79
2021/10/04 03:09:52;;;;;;;1.13;0.60;;;13.20;99.90;;;;;;5054944;28;20084;-79
2021/10/04 03:12:19;;;;;;;1.25;0.57;;;13.20;99.90;;;;;;5054539;28;20374;-79
2021/10/04 03:14:45;;;;;;;2.45;0.70;;;13.10;99.90;;;;;;5054579;28;20040;-78
2021/10/04 03:17:11;;;;;;;0.63;0.40;;;13.10;99.90;;;;;;5054507;28;20057;-79
2021/10/04 03:19:36;;;;;;;0.93;0.55;;;13.10;99.90;;;;;;5069681;28;20029;-79
2021/10/04 03:22:04;;;;;;;1.52;0.50;;;13.10;99.90;;;;;;5054505;28;20035;-79
2021/10/04 03:24:30;;;;;;;1.77;0.77;;;13.00;99.90;;;;;;5054468;28;20112;-79
2021/10/04 03:26:56;;;;;;;2.10;0.77;;;13.00;99.90;;;;;;5054642;28;20025;-79
2021/10/04 03:29:22;;;;;;;5.80;2.45;;;13.10;99.90;;;;;;5054600;28;20517;-79
2021/10/04 03:31:48;;;;;;;4.75;1.17;;;13.10;99.90;;;;;;5054484;28;20059;-79
2021/10/04 03:34:13;;;;;;;2.55;0.80;;;13.10;99.90;;;;;;5054392;28;20029;-78
2021/10/04 03:36:39;;;;;;;2.63;1.00;;;13.10;99.90;;;;;;5054396;28;20488;-79
2021/10/04 03:39:08;;;;;;;5.35;1.20;;;13.10;99.90;;;;;;5069522;28;20033;-79
2021/10/04 03:41:35;;;;;;;3.22;1.10;;;13.10;99.90;;;;;;5054260;28;20037;-77
2021/10/04 03:44:03;;;;;;;3.00;0.80;;;13.10;99.90;;;;;;5053730;28;20144;-78
2021/10/04 03:46:29;;;;;;;2.45;1.00;;;13.10;99.90;;;;;;5054136;28;20037;-79
2021/10/04 03:48:55;;;;;;;2.80;1.13;;;13.10;99.90;;;;;;5053811;28;20455;-79
2021/10/04 03:51:21;;;;;;;2.25;0.90;;;13.00;99.90;;;;;;5036636;28;20116;-79
2021/10/04 03:53:47;;;;;;;1.85;0.93;;;13.00;99.90;;;;;;5049334;28;20120;-78
2021/10/04 03:56:13;;;;;;;3.75;1.00;;;13.00;99.90;;;;;;5054036;28;20121;-78
2021/10/04 03:58:40;;;;;;;2.67;0.93;;;13.00;99.90;;;;;;5050740;28;20760;-73
2021/10/04 04:01:06;;;;;;;4.13;0.95;;;13.10;99.90;;;;;;5044394;28;20032;-75
2021/10/04 04:03:32;;;;;;;3.28;1.27;;;13.00;99.90;;;;;;5033574;28;20025;-75
2021/10/04 04:05:58;;;;;;;2.47;0.90;;;13.00;99.90;;;;;;5048347;28;20029;-74
2021/10/04 04:08:24;;;;;;;6.40;1.00;;;13.00;99.90;;;;;;5053246;28;20035;-74
2021/10/04 04:10:50;;;;;;;4.15;0.80;;;13.00;99.90;;;;;;5053754;28;20037;-77
2021/10/04 04:13:16;;;;;;;2.47;0.90;;;13.00;99.90;;;;;;5053245;28;20064;-73
2021/10/04 04:15:42;;;;;;;3.17;0.95;;;13.00;99.90;;;;;;5053592;28;20029;-73
2021/10/04 04:18:08;;;;;;;2.25;0.68;;;13.10;99.90;;;;;;5053207;28;20505;-72
2021/10/04 04:20:33;;;;;;;1.52;0.88;;;13.10;99.90;;;;;;5053364;28;20064;-72
2021/10/04 04:22:59;;;;;;;2.95;0.93;;;13.00;99.90;;;;;;5053268;28;20033;-73
2021/10/04 04:25:25;;;;;;;1.60;0.95;;;13.00;99.90;;;;;;5052892;28;20033;-73
2021/10/04 04:27:51;;;;;;;1.42;1.13;;;13.00;99.90;;;;;;5053456;28;20029;-73
2021/10/04 04:30:17;;;;;;;2.13;1.20;;;13.10;99.90;;;;;;5068913;28;20428;-74
2021/10/04 04:32:44;;;;;;;4.15;1.73;;;13.10;99.90;;;;;;5070808;28;20505;-72
2021/10/04 04:35:11;;;;;;;2.88;1.40;;;13.10;99.90;;;;;;5072878;28;20461;-75
2021/10/04 04:37:39;;;;;;;3.20;1.40;;;13.00;99.90;;;;;;5073041;28;20044;-76
2021/10/04 04:40:10;;;;;;;1.98;1.10;;;13.10;99.90;;;;;;5072787;28;20036;-76
2021/10/04 04:42:37;;;;;;;1.80;1.10;;;13.10;99.90;;;;;;5072818;28;20591;-76
2021/10/04 04:45:05;;;;;;;1.85;0.90;;;13.00;99.90;;;;;;5072613;28;20036;-75
2021/10/04 04:47:31;;;;;;;1.83;1.00;;;13.00;99.90;;;;;;5072970;28;20028;-75
2021/10/04 04:49:56;;;;;;;3.97;1.70;;;13.00;99.90;;;;;;5072764;28;20054;-76
2021/10/04 04:52:22;;;;;;;5.15;1.60;;;13.00;99.90;;;;;;5063647;28;20087;-76
2021/10/04 04:54:48;;;;;;;3.00;1.55;;;12.90;99.90;;;;;;5052543;28;20029;-76
2021/10/04 04:57:14;;;;;;;3.67;1.10;;;13.00;99.90;;;;;;5051840;28;20033;-76
2021/10/04 04:59:40;;;;;;;2.88;1.05;;;12.90;99.90;;;;;;5041460;28;20056;-76
2021/10/04 05:02:06;;;;;;;3.65;1.50;;;13.00;99.90;;;;;;5031659;28;20474;-76
2021/10/04 05:04:32;;;;;;;2.95;1.20;;;13.00;99.90;;;;;;5032582;28;20105;-76
2021/10/04 05:06:58;;;;;;;1.95;1.20;;;13.00;99.90;;;;;;5032376;28;20112;-76
2021/10/04 05:09:24;;;;;;;3.67;1.85;;;12.90;99.90;;;;;;5032637;28;20029;-76
2021/10/04 05:11:50;;;;;;;3.67;1.58;;;12.80;99.90;;;;;;5031673;28;20517;-76
2021/10/04 05:14:16;;;;;;;2.63;1.10;;;12.80;99.90;;;;;;5031483;28;20037;-75
2021/10/04 05:16:41;;;;;;;4.80;1.60;;;12.80;99.90;;;;;;5032050;28;20057;-75
2021/10/04 05:19:07;;;;;;;2.05;1.05;;;12.80;99.90;;;;;;5032378;28;20033;-75
2021/10/04 05:21:33;;;;;;;4.30;1.77;;;12.90;99.90;;;;;;5032362;28;20029;-75
2021/10/04 05:23:59;;;;;;;5.75;1.63;;;12.90;99.90;;;;;;5032558;28;20092;-75
2021/10/04 05:26:26;;;;;;;2.13;1.52;;;12.90;99.90;;;;;;5032277;28;20029;-75
2021/10/04 05:28:52;;;;;;;3.65;1.45;;;12.90;99.90;;;;;;5032244;28;20437;-75
2021/10/04 05:31:18;;;;;;;5.25;2.17;;;12.90;99.90;;;;;;5032495;28;20041;-74
2021/10/04 05:33:44;;;;;;;5.50;1.70;;;12.80;99.90;;;;;;5032206;28;20080;-67
2021/10/04 05:36:10;;;;;;;3.10;1.77;;;12.80;99.90;;;;;;5030817;28;20456;-67
2021/10/04 05:38:36;;;;;;;5.00;2.20;;;12.90;99.90;;;;;;5031990;28;20115;-67
2021/10/04 05:41:05;;;;;;;5.95;2.70;;;13.00;99.90;;;;;;5032381;28;20091;-67
2021/10/04 05:43:34;;;;;;;2.95;1.75;;;12.90;99.90;;;;;;5031991;28;20533;-67
2021/10/04 05:46:02;;;;;;;4.47;1.98;;;13.00;99.90;;;;;;5032321;28;20122;-67
2021/10/04 05:48:27;;;;;;;3.17;2.28;;;13.00;99.90;;;;;;5030816;28;20033;-70
2021/10/04 05:50:53;;;;;;;3.20;2.10;;;13.00;99.90;;;;;;5032042;28;20095;-72
2021/10/04 05:53:19;;;;;;;3.42;2.38;;;13.00;99.90;;;;;;5031962;28;20029;-72
2021/10/04 05:55:49;;;;;;;5.40;2.47;;;12.90;99.90;;;;;;5031824;28;20029;-73
2021/10/04 05:58:15;;;;;;;3.97;2.22;;;12.90;99.90;;;;;;5032077;28;20048;-73
2021/10/04 06:00:43;;;;;;;3.97;2.20;;;12.90;99.90;;;;;;5031421;28;20033;-73
2021/10/04 06:03:09;;;;;;;4.65;2.20;;;12.90;99.90;;;;;;5041758;28;20061;-73
2021/10/04 06:05:35;;;;;;;4.45;2.33;;;12.90;99.90;;;;;;5050567;28;20079;-73
2021/10/04 06:08:02;;;;;;;3.30;1.85;;;12.90;99.90;;;;;;5053591;28;20029;-73
2021/10/04 06:10:28;;;;;;;3.67;2.00;;;12.90;99.90;;;;;;5054307;28;20087;-73
2021/10/04 06:12:54;;;;;;;3.63;2.17;;;12.90;99.90;;;;;;5070711;28;20033;-73
2021/10/04 06:15:20;;;;;;;6.25;2.22;;;12.80;99.90;;;;;;5070809;28;20052;-73
2021/10/04 06:17:46;;;;;;;5.40;2.30;;;12.90;99.90;;;;;;5070724;28;20120;-73
2021/10/04 06:20:13;;;;;;;3.40;1.98;;;12.90;99.90;;;;;;5055572;28;20093;-74
2021/10/04 06:22:40;;;;;;;3.63;1.85;;;13.00;99.90;;;;;;5055286;28;20108;-74
2021/10/04 06:25:10;;;;;;;3.83;1.75;;;12.90;99.90;;;;;;5070923;28;20110;-74
2021/10/04 06:27:37;;;;;;;6.05;2.00;;;12.90;99.90;;;;;;5070287;28;20095;-74
2021/10/04 06:30:07;;;;;;;5.47;1.80;;;13.00;99.90;;;;;;5070821;28;20060;-74
2021/10/04 06:32:34;;;;;;;2.53;1.63;;;12.90;99.90;;;;;;5070183;28;20110;-74
2021/10/04 06:35:00;;;;;;;2.80;1.48;;;12.90;99.90;;;;;;5070725;28;20033;-73
2021/10/04 06:37:26;;;;;;;18.60;9.02;;;13.00;99.90;;;;;;5070465;28;20036;-73
2021/10/04 06:39:51;;;;;;;6.50;2.75;;;13.00;99.90;;;;;;5055174;28;20037;-73
2021/10/04 06:42:17;;;;;;;3.30;1.33;;;13.00;99.90;;;;;;5055247;28;20359;-73
2021/10/04 06:44:43;;;;;;;3.20;1.40;;;13.00;99.90;;;;;;5054947;28;20024;-73
2021/10/04 06:47:09;;;;;;;2.13;1.30;;;13.00;99.90;;;;;;5070222;28;20029;-73
2021/10/04 06:49:35;;;;;;;2.58;1.10;;;13.00;99.90;;;;;;5069918;28;20029;-73
2021/10/04 06:52:04;;;;;;;2.03;1.10;;;13.00;99.90;;;;;;5053537;28;20033;-72
2021/10/04 06:54:30;;;;;;;2.85;1.23;;;13.00;99.90;;;;;;5054763;28;20115;-72
2021/10/04 06:56:55;;;;;;;4.05;1.30;;;13.00;99.90;;;;;;5054938;28;20021;-72
2021/10/04 06:59:21;;;;;;;2.67;1.30;;;13.00;99.90;;;;;;5054592;28;20033;-72
2021/10/04 07:01:47;;;;;;;4.18;1.90;;;13.00;99.90;;;;;;5054614;28;20029;-72
2021/10/04 07:04:13;;;;;;;3.13;1.60;;;13.00;99.90;;;;;;5054726;28;20037;-72
2021/10/04 07:06:39;;;;;;;2.08;1.15;;;13.00;99.90;;;;;;5054849;28;20028;-72
2021/10/04 07:09:08;;;;;;;2.50;1.35;;;13.00;99.90;;;;;;5054437;28;20036;-72
2021/10/04 07:11:48;;;;;;;2.72;1.13;;;13.10;99.90;;;;;;5054648;28;20486;-72
2021/10/04 07:14:14;;;;;;;1.58;1.05;;;13.10;99.90;;;;;;5069580;28;20096;-72
2021/10/04 07:16:39;;;;;;;1.98;1.20;;;13.10;99.90;;;;;;5054142;28;20036;-72
2021/10/04 07:19:05;;;;;;;2.63;0.98;;;13.10;99.90;;;;;;5069193;28;20041;-72
2021/10/04 07:21:32;;;;;;;2.45;1.30;;;13.10;99.90;;;;;;5054351;28;20037;-72
2021/10/04 07:23:59;;;;;;;2.20;0.98;;;13.10;99.90;;;;;;5054594;28;20485;-72
2021/10/04 07:26:26;;;;;;;4.15;1.35;;;13.10;99.90;;;;;;5069725;28;20068;-72
2021/10/04 07:28:52;;;;;;;2.40;1.10;;;13.20;99.90;;;;;;5054470;28;20116;-72
2021/10/04 07:31:19;;;;;;;1.75;0.90;;;13.10;99.90;;;;;;5054576;28;20060;-70
2021/10/04 07:33:45;;;;;;;3.25;1.30;;;13.10;99.90;;;;;;5054345;28;20041;-70
2021/10/04 07:36:11;;;;;;;3.08;1.30;;;13.00;99.90;;;;;;5054083;28;20120;-72
2021/10/04 07:38:38;;;;;;;3.05;1.10;;;13.00;99.90;;;;;;5054047;28;20032;-71
2021/10/04 07:41:07;;;;;;;4.03;1.13;;;12.90;99.90;;;;;;5069657;28;20394;-71
2021/10/04 07:43:34;;;;;;;1.75;1.10;;;12.80;99.90;;;;;;5069381;28;20060;-71
2021/10/04 07:46:04;;;;;;;3.30;1.40;;;12.80;99.90;;;;;;5069559;28;20039;-70
2021/10/04 07:48:31;;;;;;;3.08;1.27;;;12.90;99.90;;;;;;5069489;28;20025;-71
2021/10/04 07:50:57;;;;;;;3.05;1.10;;;12.90;99.90;;;;;;5069400;28;20417;-72
2021/10/04 07:53:22;;;;;;;3.58;1.30;;;12.90;99.90;;;;;;5053658;28;20032;-71
2021/10/04 07:55:48;;;;;;;5.03;1.60;;;13.00;99.90;;;;;;5052711;28;20040;-71
2021/10/04 07:58:14;;;;;;;4.63;1.60;;;13.00;99.90;;;;;;5052717;28;20029;-71
2021/10/04 08:00:40;;;;;;;3.83;1.50;;;13.00;99.90;;;;;;5053396;28;20398;-71
2021/10/04 08:03:06;;;;;;;3.92;2.00;;;13.00;99.90;;;;;;5053967;28;20033;-72
2021/10/04 08:05:32;;;;;;;3.92;2.70;;;12.90;99.90;;;;;;5052011;28;20112;-72
2021/10/04 08:07:58;;;;;;;5.72;2.90;;;13.00;99.90;;;;;;5053640;28;20048;-73
2021/10/04 08:10:24;;;;;;;5.55;2.70;;;13.10;99.90;;;;;;5053708;28;20485;-71
2021/10/04 08:12:51;;;;;;;4.13;2.08;;;13.10;99.90;;;;;;5053401;28;20112;-73
2021/10/04 08:15:17;;;;;;;4.80;2.30;;;13.20;99.90;;;;;;5051765;28;20032;-73
2021/10/04 08:17:43;;;;;;;6.80;2.30;;;13.30;99.90;;;;;;5053032;28;20051;-73
2021/10/04 08:20:10;;;;;;;3.55;2.10;;;13.40;99.90;;;;;;5053197;28;20039;-73
2021/10/04 08:22:38;;;;;;;10.30;2.85;;;13.40;99.90;;;;;;5068436;28;20029;-73
2021/10/04 08:25:10;;;;;;;6.65;3.63;;;13.30;99.90;;;;;;5053232;28;20029;-73
2021/10/04 08:27:36;;;;;;;7.63;3.50;;;13.20;99.90;;;;;;5068362;28;20033;-73
2021/10/04 08:30:03;;;;;;;6.40;3.47;;;13.20;99.90;;;;;;5052867;28;20036;-73
2021/10/04 08:32:28;;;;;;;4.90;3.00;;;13.40;99.90;;;;;;5051899;28;20033;-73
2021/10/04 08:34:54;;;;;;;5.93;2.85;;;13.50;99.90;;;;;;5051616;28;20563;-73
2021/10/04 08:37:20;;;;;;;5.25;2.60;;;13.50;99.90;;;;;;5050471;28;20572;-73
2021/10/04 08:39:46;;;;;;;5.40;2.70;;;13.50;99.90;;;;;;5051450;28;20035;-73
2021/10/04 08:42:14;;;;;;;4.90;1.83;;;13.50;99.90;;;;;;5050675;28;20537;-73
2021/10/04 08:44:41;;;;;;;5.63;2.08;;;13.50;99.90;;;;;;5051649;28;20027;-73
2021/10/04 08:47:07;;;;;;;2.95;1.95;;;13.60;99.90;;;;;;5058697;28;20025;-73
2021/10/04 08:49:34;;;;;;;3.13;1.25;;;13.70;99.90;;;;;;5051360;28;20094;-73
2021/10/04 08:52:01;;;;;;;3.90;1.90;;;13.80;99.90;;;;;;5067068;28;20028;-73
2021/10/04 08:54:29;;;;;;;2.42;1.30;;;13.80;99.90;;;;;;5051370;28;20114;-73
2021/10/04 08:56:58;;;;;;;1.98;1.10;;;13.60;99.90;;;;;;5066360;28;20021;-73
2021/10/04 08:59:25;;;;;;;2.20;0.90;;;13.60;99.90;;;;;;5050870;28;20500;-73
2021/10/04 09:02:10;;;;;;;1.77;1.02;;;13.50;99.90;;;;;;5051527;28;20025;-73
2021/10/04 09:04:39;;;;;;;2.08;0.88;;;13.60;99.90;;;;;;5047748;28;20059;-73
2021/10/04 09:07:05;;;;;;;2.92;1.10;;;13.60;99.90;;;;;;5031450;28;20550;-73
2021/10/04 09:09:31;;;;;;;2.60;1.08;;;13.60;99.90;;;;;;5032140;28;20038;-74
2021/10/04 09:11:57;;;;;;;3.80;1.30;;;13.60;99.90;;;;;;5032548;28;20497;-73
2021/10/04 09:14:31;;;;;;;3.70;1.30;;;13.60;99.90;;;;;;5031057;28;20037;-73
2021/10/04 09:17:01;;;;;;;4.57;1.67;;;13.60;99.90;;;;;;5032315;28;20502;-74
2021/10/04 09:19:48;;;;;;;4.72;2.00;;;13.60;99.90;;;;;;5047270;28;20494;-73
2021/10/04 09:22:20;;;;;;;3.83;1.65;;;13.60;99.90;;;;;;5032802;28;20391;-74
2021/10/04 09:24:58;;;;;;;3.55;1.38;;;13.80;99.90;;;;;;5047360;28;20029;-73
2021/10/04 09:27:27;;;;;;;1.88;0.65;;;13.80;99.90;;;;;;5032552;28;20179;-74
2021/10/04 09:29:54;;;;;;;0.95;0.57;;;13.80;99.90;;;;;;5031987;28;20033;-74
2021/10/04 09:32:45;;;;;;;1.75;0.90;;;13.80;99.90;;;;;;5032277;28;20030;-74
2021/10/04 09:35:44;;;;;;;2.75;1.08;;;13.90;99.90;;;;;;5032979;28;20037;-74
2021/10/04 09:38:17;;;;;;;2.70;1.10;;;13.90;99.90;;;;;;5036183;28;20041;-74
2021/10/04 09:40:46;;;;;;;2.67;1.15;;;13.90;99.90;;;;;;5032064;28;20034;-74
2021/10/04 09:43:29;;;;;;;2.45;1.10;;;13.90;99.90;;;;;;5047267;28;20427;-74
2021/10/04 09:46:07;;;;;;;4.88;1.35;;;13.80;99.90;;;;;;5032000;28;20092;-74
2021/10/04 09:48:33;;;;;;;4.03;1.50;;;13.80;99.90;;;;;;5047455;28;20044;-74
2021/10/04 09:51:14;;;;;;;2.08;1.17;;;13.90;99.90;;;;;;5047523;28;20109;-74
2021/10/04 09:53:40;;;;;;;3.33;0.82;;;13.80;99.90;;;;;;5031791;28;20095;-73
2021/10/04 09:56:06;;;;;;;3.33;0.90;;;13.80;99.90;;;;;;5050688;28;20030;-75
2021/10/04 09:58:33;;;;;;;2.10;1.10;;;13.90;99.90;;;;;;5046865;28;20101;-77
2021/10/04 10:01:02;;;;;;;1.70;0.90;;;13.90;99.90;;;;;;5040004;28;20058;-74
2021/10/04 10:03:38;;;;;;;2.63;1.25;;;14.00;99.90;;;;;;5040980;28;20029;-75
2021/10/04 10:06:04;;;;;;;1.30;0.90;;;13.90;99.90;;;;;;5047342;28;20048;-75
2021/10/04 10:08:30;;;;;;;5.85;1.00;;;13.90;99.90;;;;;;5047289;28;20090;-80
2021/10/04 10:11:02;;;;;;;1.23;0.70;;;13.90;99.90;;;;;;5050326;28;20386;-78
2021/10/04 10:13:30;;;;;;;1.33;0.90;;;14.00;99.90;;;;;;5060717;28;20132;-75
2021/10/04 10:16:16;;;;;;;2.30;0.93;;;14.10;99.90;;;;;;5051761;28;20040;-76
2021/10/04 10:19:07;;;;;;;1.58;0.80;;;14.20;99.90;;;;;;5051424;28;20052;-74
2021/10/04 10:21:35;;;;;;;1.67;0.82;;;14.20;99.90;;;;;;5067099;28;20041;-76
2021/10/04 10:24:09;;;;;;;1.98;0.90;;;14.20;99.90;;;;;;5044883;28;20037;-75
2021/10/04 10:26:44;;;;;;;2.17;1.02;;;14.20;99.90;;;;;;5033373;28;20041;-68
2021/10/04 10:29:10;;;;;;;2.22;0.88;;;14.30;99.90;;;;;;5038514;28;20053;-73
2021/10/04 10:31:48;;;;;;;2.72;1.40;;;14.30;99.90;;;;;;5045473;28;20117;-73
2021/10/04 10:34:32;;;;;;;3.42;1.23;;;14.20;99.90;;;;;;5031913;28;20033;-73
2021/10/04 10:37:10;;;;;;;5.30;1.20;;;14.20;99.90;;;;;;5031285;28;20033;-73
2021/10/04 10:39:49;;;;;;;3.67;1.00;;;14.20;99.90;;;;;;5046538;28;20112;-73
2021/10/04 10:43:04;;;;;;;1.27;0.88;;;14.20;99.90;;;;;;5031803;28;20131;-73
2021/10/04 10:45:47;;;;;;;1.98;1.00;;;14.20;99.90;;;;;;5029821;28;20548;-73
2021/10/04 10:48:15;;;;;;;6.60;1.20;;;14.20;99.90;;;;;;5031439;28;20048;-73
2021/10/04 10:50:48;;;;;;;2.03;0.93;;;14.30;99.90;;;;;;5046526;28;20458;-73
2021/10/04 10:53:29;;;;;;;2.33;1.02;;;14.40;99.90;;;;;;5031617;28;20541;-73
2021/10/04 10:56:04;;;;;;;2.45;1.23;;;14.30;99.90;;;;;;5049385;28;20080;-73
2021/10/04 10:58:35;;;;;;;2.25;1.25;;;14.40;99.90;;;;;;5035134;28;20072;-73
2021/10/04 11:01:13;;;;;;;;;;;14.40;99.90;;;;;;5050665;28;20099;-73
2021/10/04 11:03:54;;;;;;;1.83;0.90;;;14.40;99.90;;;;;;5034869;28;19920;-73
2021/10/04 11:06:39;;;;;;;;;;;14.60;99.90;;;;;;5035362;28;20034;-73
2021/10/04 11:09:05;;;;;;;1.15;0.77;;;14.60;99.90;;;;;;5049031;28;19917;-73
2021/10/04 11:11:32;;;;;;;2.53;0.80;;;14.60;99.90;;;;;;5034813;28;20033;-72
2021/10/04 11:14:08;;;;;;;1.88;0.85;;;14.70;99.90;;;;;;5049888;28;20056;-73
2021/10/04 11:16:45;;;;;;;1.70;0.73;;;14.80;99.90;;;;;;5049554;28;20030;-73
2021/10/04 11:19:28;;;;;;;1.50;0.70;;;14.70;99.90;;;;;;5049908;28;20103;-73
2021/10/04 11:21:54;;;;;;;1.33;0.68;;;14.60;99.90;;;;;;5034726;28;20536;-73
2021/10/04 11:24:21;;;;;;;1.60;0.90;;;14.50;99.90;;;;;;5034540;28;20037;-73
2021/10/04 11:26:48;;;;;;;3.20;1.13;;;14.60;99.90;;;;;;5037120;28;20040;-73
2021/10/04 11:29:17;;;;;;;1.95;0.98;;;14.60;99.90;;;;;;5045042;28;20420;-73
2021/10/04 11:31:46;;;;;;;1.10;0.75;;;14.60;99.90;;;;;;5036743;28;20453;-73
2021/10/04 11:34:17;;;;;;;1.38;0.70;;;14.60;99.90;;;;;;5034346;28;20100;-73
2021/10/04 11:36:49;;;;;;;1.92;0.80;;;14.50;99.90;;;;;;5032818;28;20029;-72
2021/10/04 11:39:30;;;;;;;3.72;0.80;;;14.50;99.90;;;;;;5032988;28;20132;-73
2021/10/04 11:42:04;;;;;;;1.20;0.60;;;14.60;99.90;;;;;;5033971;28;20033;-73
2021/10/04 11:44:33;;;;;;;1.63;0.75;;;14.60;99.90;;;;;;5049566;28;20034;-73
2021/10/04 11:47:05;;;;;;;2.53;0.80;;;14.60;99.90;;;;;;5032661;28;20079;-73
2021/10/04 11:49:41;;;;;;;2.40;0.60;;;14.50;99.90;;;;;;5032895;28;20065;-73
2021/10/04 11:52:17;;;;;;;1.63;0.73;;;14.50;99.90;;;;;;5032548;28;20025;-73
2021/10/04 11:54:52;;;;;;;1.25;0.55;;;14.70;99.90;;;;;;5032583;28;20037;-73
2021/10/04 11:57:20;;;;;;;1.75;0.70;;;14.80;99.90;;;;;;5032976;28;20041;-74
2021/10/04 11:59:54;;;;;;;1.52;0.70;;;14.90;99.90;;;;;;5033967;28;20519;-74
2021/10/04 12:02:33;;;;;;;2.53;0.47;;;15.00;99.90;;;;;;5036796;28;20477;-74
2021/10/04 12:05:17;;;;;;;1.98;0.70;;;14.90;99.90;;;;;;5068038;28;20033;-73
2021/10/04 12:08:02;;;;;;;4.53;0.70;;;14.90;99.90;;;;;;5053217;28;20051;-74
2021/10/04 12:11:00;;;;;;;7.18;0.80;;;14.90;99.90;;;;;;5052604;28;20090;-74
2021/10/04 12:13:36;;;;;;;1.88;0.77;;;14.80;99.90;;;;;;5052546;28;20400;-73
2021/10/04 12:16:11;;;;;;;1.10;0.50;;;14.80;99.90;;;;;;5052037;28;20077;-74
2021/10/04 12:18:59;;;;;;;1.38;0.65;;;14.80;99.90;;;;;;5053176;28;20505;-74
2021/10/04 12:21:36;;;;;;;1.63;0.80;;;14.80;99.90;;;;;;5053390;28;20044;-74
2021/10/04 12:24:37;;;;;;;1.63;0.70;;;14.90;99.90;;;;;;5068180;28;20048;-74
2021/10/04 12:27:15;;;;;;;1.35;0.80;;;14.90;99.90;;;;;;5053238;28;20107;-73
2021/10/04 12:29:59;;;;;;;0.82;0.60;;;14.90;99.90;;;;;;5053333;28;20045;-73
2021/10/04 12:32:49;;;;;;;1.33;0.60;;;15.00;99.90;;;;;;5052970;28;20035;-74
2021/10/04 12:35:23;;;;;;;1.02;0.50;;;15.00;99.90;;;;;;5052992;28;20508;-74
2021/10/04 12:38:02;;;;;;;2.22;0.80;;;15.10;99.90;;;;;;5052830;28;20064;-73
2021/10/04 12:40:32;;;;;;;1.13;0.45;;;15.10;99.90;;;;;;5052683;28;20120;-73
2021/10/04 12:43:05;;;;;;;0.77;0.57;;;15.10;99.90;;;;;;5052674;28;20029;-73
2021/10/04 12:45:33;;;;;;;1.92;1.05;;;15.20;99.90;;;;;;5053003;28;20037;-74
2021/10/04 12:48:13;;;;;;;1.85;0.80;;;15.30;99.90;;;;;;5052921;28;20017;-74
2021/10/04 12:50:40;;;;;;;2.80;1.40;;;15.10;99.90;;;;;;5052071;28;20028;-73
2021/10/04 12:53:22;;;;;;;2.00;1.00;;;15.30;99.90;;;;;;5052656;28;20032;-74
2021/10/04 12:56:00;;;;;;;3.40;1.40;;;15.40;99.90;;;;;;5052513;28;20033;-74
2021/10/04 12:58:32;;;;;;;2.30;1.08;;;15.30;99.90;;;;;;5052801;28;20033;-74